createdAt,value
2023-05-24T00:01:57.098Z,98087.13
2023-05-24T00:04:25.508Z,98099.88
2023-05-24T00:06:55.050Z,98093.63
2023-05-24T00:09:22.007Z,98096.34
2023-05-24T00:11:48.759Z,98090.31
2023-05-24T00:14:15.736Z,98071.38
2023-05-24T00:16:42.628Z,98084.09
2023-05-24T00:19:11.453Z,98079.91
2023-05-24T00:21:38.537Z,98082.03
2023-05-24T00:24:05.358Z,98080.56
2023-05-24T00:26:31.968Z,98084.94
2023-05-24T00:28:58.552Z,98078.28
2023-05-24T00:31:25.318Z,98074.56
2023-05-24T00:33:52.027Z,98076.69
2023-05-24T00:36:18.633Z,98076.06
2023-05-24T00:38:45.460Z,98081.72
2023-05-24T00:41:12.186Z,98081.09
2023-05-24T00:43:38.932Z,98078.38
2023-05-24T00:46:26.753Z,98080.88
2023-05-24T00:48:53.886Z,98083.84
2023-05-24T00:51:21.083Z,98081.75
2023-05-24T00:53:49.505Z,98078.84
2023-05-24T00:56:17.666Z,98070.69
2023-05-24T00:58:44.680Z,98084.31
2023-05-24T01:01:11.834Z,98081.78
2023-05-24T01:03:39.665Z,98079.50
2023-05-24T01:06:08.011Z,98069.72
2023-05-24T01:08:40.661Z,98070.56
2023-05-24T01:11:28.613Z,98077.47
2023-05-24T01:13:59.487Z,98070.16
2023-05-24T01:16:53.649Z,98066.22
2023-05-24T01:19:36.752Z,98066.41
2023-05-24T01:22:37.247Z,98072.91
2023-05-24T01:25:07.486Z,98064.97
2023-05-24T01:27:36.301Z,98058.28
2023-05-24T01:30:04.366Z,98068.09
2023-05-24T01:32:31.927Z,98071.84
2023-05-24T01:34:58.647Z,98074.34
2023-05-24T01:37:25.275Z,98073.09
2023-05-24T01:39:52.844Z,98067.47
2023-05-24T01:42:19.446Z,98075.59
2023-05-24T01:45:25.931Z,98074.34
2023-05-24T01:47:52.609Z,98069.78
2023-05-24T01:50:45.354Z,98078.34
2023-05-24T01:53:15.414Z,98081.03
2023-05-24T01:55:43.749Z,98066.00
2023-05-24T01:58:12.581Z,98073.13
2023-05-24T02:00:40.958Z,98078.31
2023-05-24T02:03:08.316Z,98069.13
2023-05-24T02:05:34.993Z,98072.09
2023-05-24T02:08:01.709Z,98073.94
2023-05-24T02:10:28.352Z,98066.84
2023-05-24T02:12:54.923Z,98072.88
2023-05-24T02:15:21.962Z,98077.06
2023-05-24T02:17:48.681Z,98071.63
2023-05-24T02:20:17.451Z,98068.94
2023-05-24T02:22:44.231Z,98071.03
2023-05-24T02:25:10.893Z,98057.91
2023-05-24T02:27:37.557Z,98076.44
2023-05-24T02:30:05.862Z,98076.44
2023-05-24T02:32:33.039Z,98076.88
2023-05-24T02:35:01.894Z,98082.50
2023-05-24T02:37:28.580Z,98085.63
2023-05-24T02:39:55.306Z,98075.22
2023-05-24T02:42:21.960Z,98081.25
2023-05-24T02:44:49.593Z,98080.81
2023-05-24T02:47:16.208Z,98088.97
2023-05-24T02:49:42.864Z,98087.94
2023-05-24T02:52:09.566Z,98096.06
2023-05-24T02:54:37.065Z,98099.19
2023-05-24T02:57:04.061Z,98099.38
2023-05-24T02:59:31.236Z,98100.00
2023-05-24T03:01:58.013Z,98103.16
2023-05-24T03:04:24.802Z,98106.06
2023-05-24T03:06:51.436Z,98112.31
2023-05-24T03:09:19.054Z,98106.69
2023-05-24T03:11:45.680Z,98103.59
2023-05-24T03:14:12.314Z,98097.72
2023-05-24T03:16:38.974Z,98107.75
2023-05-24T03:19:08.441Z,98115.03
2023-05-24T03:21:36.693Z,98107.31
2023-05-24T03:24:03.450Z,98107.09
2023-05-24T03:26:30.048Z,98106.47
2023-05-24T03:28:56.661Z,98117.75
2023-05-24T03:31:24.392Z,98118.38
2023-05-24T03:33:51.380Z,98109.59
2023-05-24T03:36:18.243Z,98114.41
2023-05-24T03:38:45.093Z,98109.41
2023-05-24T03:41:11.723Z,98114.63
2023-05-24T03:43:38.478Z,98121.06
2023-05-24T03:46:05.174Z,98124.41
2023-05-24T03:48:31.871Z,98124.00
2023-05-24T03:50:58.486Z,98132.75
2023-05-24T03:53:25.858Z,98128.63
2023-05-24T03:55:52.455Z,98131.13
2023-05-24T03:58:19.133Z,98123.63
2023-05-24T04:00:45.895Z,98123.81
2023-05-24T04:03:12.591Z,98129.84
2023-05-24T04:05:39.389Z,98136.09
2023-05-24T04:08:06.476Z,98120.81
2023-05-24T04:10:33.134Z,98131.47
2023-05-24T04:13:00.843Z,98128.75
2023-05-24T04:15:27.629Z,98135.38
2023-05-24T04:17:55.677Z,98126.81
2023-05-24T04:20:27.757Z,98128.41
2023-05-24T04:22:54.651Z,98126.69
2023-05-24T04:25:21.367Z,98131.03
2023-05-24T04:27:48.910Z,98131.59
2023-05-24T04:30:18.626Z,98126.88
2023-05-24T04:32:45.275Z,98134.13
2023-05-24T04:35:12.364Z,98134.03
2023-05-24T04:37:40.425Z,98134.78
2023-05-24T04:40:08.485Z,98134.28
2023-05-24T04:42:35.624Z,98131.25
2023-05-24T04:45:02.745Z,98136.34
2023-05-24T04:47:29.905Z,98145.34
2023-05-24T04:49:56.653Z,98146.31
2023-05-24T04:52:23.276Z,98145.56
2023-05-24T04:54:50.041Z,98156.00
2023-05-24T04:57:17.243Z,98150.00
2023-05-24T04:59:44.406Z,98149.34
2023-05-24T05:02:11.237Z,98153.91
2023-05-24T05:04:38.040Z,98153.53
2023-05-24T05:07:04.943Z,98164.09
2023-05-24T05:09:31.738Z,98156.69
2023-05-24T05:11:58.680Z,98160.97
2023-05-24T05:14:25.677Z,98163.84
2023-05-24T05:16:52.338Z,98166.81
2023-05-24T05:19:19.008Z,98165.31
2023-05-24T05:21:45.610Z,98165.91
2023-05-24T05:24:12.602Z,98167.16
2023-05-24T05:26:39.342Z,98170.97
2023-05-24T05:29:06.003Z,98179.16
2023-05-24T05:31:32.685Z,98175.19
2023-05-24T05:33:59.365Z,98183.97
2023-05-24T05:36:26.168Z,98192.63
2023-05-24T05:38:52.991Z,98191.56
2023-05-24T05:41:19.618Z,98193.56
2023-05-24T05:43:46.248Z,98195.72
2023-05-24T05:46:15.327Z,98191.97
2023-05-24T05:48:42.603Z,98189.22
2023-05-24T05:51:10.570Z,98187.44
2023-05-24T05:53:37.203Z,98190.91
2023-05-24T05:56:03.938Z,98191.06
2023-05-24T05:58:30.639Z,98189.09
2023-05-24T06:00:57.317Z,98193.97
2023-05-24T06:03:24.125Z,98199.91
2023-05-24T06:05:51.200Z,98194.44
2023-05-24T06:08:17.872Z,98191.75
2023-05-24T06:10:44.860Z,98203.56
2023-05-24T06:13:11.653Z,98202.50
2023-05-24T06:15:38.324Z,98209.56
2023-05-24T06:18:05.332Z,98220.09
2023-05-24T06:20:32.036Z,98209.94
2023-05-24T06:22:59.034Z,98206.06
2023-05-24T06:25:27.504Z,98208.59
2023-05-24T06:27:54.187Z,98212.56
2023-05-24T06:30:21.053Z,98221.59
2023-05-24T06:32:47.974Z,98220.13
2023-05-24T06:35:14.643Z,98219.66
2023-05-24T06:37:41.329Z,98225.34
2023-05-24T06:40:11.534Z,98228.00
2023-05-24T06:42:38.264Z,98214.44
2023-05-24T06:45:05.564Z,98215.56
2023-05-24T06:47:32.320Z,98218.59
2023-05-24T06:49:59.030Z,98224.03
2023-05-24T06:52:25.687Z,98218.94
2023-05-24T06:54:52.784Z,98228.97
2023-05-24T06:57:19.480Z,98221.72
2023-05-24T06:59:46.458Z,98217.41
2023-05-24T07:02:13.274Z,98219.63
2023-05-24T07:04:41.385Z,98216.56
2023-05-24T07:07:12.718Z,98224.00
2023-05-24T07:09:41.506Z,98213.50
2023-05-24T07:12:09.300Z,98218.25
2023-05-24T07:14:36.634Z,98211.38
2023-05-24T07:17:03.516Z,98214.00
2023-05-24T07:19:30.396Z,98213.06
2023-05-24T07:21:57.012Z,98218.00
2023-05-24T07:24:24.262Z,98219.69
2023-05-24T07:26:51.864Z,98219.41
2023-05-24T07:29:18.571Z,98215.81
2023-05-24T07:31:45.648Z,98214.19
2023-05-24T07:34:12.322Z,98228.22
2023-05-24T07:36:41.010Z,98232.31
2023-05-24T07:39:10.053Z,98217.47
2023-05-24T07:41:37.193Z,98220.53
2023-05-24T07:44:03.965Z,98231.88
2023-05-24T07:46:30.662Z,98229.16
2023-05-24T07:48:57.377Z,98214.16
2023-05-24T07:51:24.022Z,98220.25
2023-05-24T07:53:50.981Z,98218.00
2023-05-24T07:56:17.723Z,98214.72
2023-05-24T07:58:46.806Z,98214.97
2023-05-24T08:01:14.304Z,98227.81
2023-05-24T08:03:41.062Z,98225.63
2023-05-24T08:06:07.965Z,98225.56
2023-05-24T08:08:34.727Z,98224.97
2023-05-24T08:11:01.969Z,98223.75
2023-05-24T08:13:28.631Z,98226.59
2023-05-24T08:15:55.274Z,98227.03
2023-05-24T08:18:21.977Z,98227.47
2023-05-24T08:20:48.640Z,98220.97
2023-05-24T08:23:15.468Z,98228.81
2023-05-24T08:25:42.901Z,98213.63
2023-05-24T08:28:11.211Z,98209.75
2023-05-24T08:30:38.406Z,98203.09
2023-05-24T08:33:05.097Z,98214.72
2023-05-24T08:35:31.747Z,98212.53
2023-05-24T08:37:58.382Z,98211.63
2023-05-24T08:40:25.401Z,98204.69
2023-05-24T08:42:52.884Z,98221.44
2023-05-24T08:45:21.916Z,98225.56
2023-05-24T08:47:51.735Z,98230.38
2023-05-24T08:50:19.379Z,98234.41
2023-05-24T08:52:46.307Z,98228.31
2023-05-24T08:55:13.438Z,98225.78
2023-05-24T08:57:41.478Z,98225.72
2023-05-24T09:00:11.459Z,98230.97
2023-05-24T09:02:42.939Z,98224.59
2023-05-24T09:05:12.001Z,98233.13
2023-05-24T09:07:39.566Z,98234.34
2023-05-24T09:10:08.804Z,98231.94
2023-05-24T09:12:39.049Z,98223.25
2023-05-24T09:15:07.976Z,98231.69
2023-05-24T09:17:36.903Z,98227.88
2023-05-24T09:20:07.271Z,98227.97
2023-05-24T09:22:36.776Z,98226.59
2023-05-24T09:25:06.227Z,98230.84
2023-05-24T09:27:35.045Z,98230.50
2023-05-24T09:30:04.567Z,98224.19
2023-05-24T09:32:31.722Z,98219.41
2023-05-24T09:34:59.288Z,98222.31
2023-05-24T09:37:32.257Z,98228.69
2023-05-24T09:39:59.891Z,98216.25
2023-05-24T09:42:28.876Z,98228.47
2023-05-24T09:45:08.991Z,98220.88
2023-05-24T09:47:37.574Z,98217.69
2023-05-24T09:50:07.115Z,98217.41
2023-05-24T09:52:37.629Z,98217.84
2023-05-24T09:55:15.221Z,98214.13
2023-05-24T09:57:44.320Z,98219.97
2023-05-24T10:00:18.130Z,98218.22
2023-05-24T10:05:18.647Z,98203.56
2023-05-24T10:07:46.394Z,98192.63
2023-05-24T10:10:13.116Z,98188.44
2023-05-24T10:12:44.019Z,98197.91
2023-05-24T10:15:11.254Z,98199.25
2023-05-24T10:17:38.041Z,98203.09
2023-05-24T10:20:07.117Z,98209.47
2023-05-24T10:22:40.499Z,98202.00
2023-05-24T10:25:10.833Z,98207.84
2023-05-24T10:27:39.100Z,98193.78
2023-05-24T10:30:16.772Z,98189.44
2023-05-24T10:32:45.861Z,98191.31
2023-05-24T10:35:14.984Z,98185.38
2023-05-24T10:37:42.889Z,98182.50
2023-05-24T10:40:17.809Z,98175.50
2023-05-24T10:42:45.308Z,98165.75
2023-05-24T10:45:36.078Z,98158.63
2023-05-24T10:48:28.758Z,98166.50
2023-05-24T10:50:55.675Z,98164.31
2023-05-24T10:53:26.021Z,98146.38
2023-05-24T10:55:57.334Z,98154.25
2023-05-24T10:58:46.367Z,98154.59
2023-05-24T11:01:33.725Z,98169.53
2023-05-24T11:04:17.133Z,98154.50
2023-05-24T11:06:55.733Z,98169.69
2023-05-24T11:09:23.232Z,98168.50
2023-05-24T11:11:54.260Z,98179.31
2023-05-24T11:14:27.776Z,98182.06
2023-05-24T11:16:55.234Z,98163.13
2023-05-24T11:19:31.379Z,98162.81
2023-05-24T11:21:59.843Z,98152.78
2023-05-24T11:24:27.724Z,98157.22
2023-05-24T11:26:54.735Z,98153.31
2023-05-24T11:29:22.877Z,98145.66
2023-05-24T11:31:58.200Z,98142.09
2023-05-24T11:34:25.509Z,98141.66
2023-05-24T11:36:53.121Z,98151.25
2023-05-24T11:39:19.962Z,98147.78
2023-05-24T11:41:47.670Z,98145.50
2023-05-24T11:44:17.834Z,98140.47
2023-05-24T11:46:44.528Z,98148.63
2023-05-24T11:49:15.715Z,98153.50
2023-05-24T11:51:42.947Z,98140.34
2023-05-24T11:54:09.955Z,98170.44
2023-05-24T11:56:37.033Z,98152.97
2023-05-24T11:59:14.205Z,98155.72
2023-05-24T12:01:40.841Z,98162.34
2023-05-24T12:04:09.821Z,98165.75
2023-05-24T12:06:41.747Z,98179.78
2023-05-24T12:09:11.012Z,98192.00
2023-05-24T12:11:46.830Z,98183.19
2023-05-24T12:14:34.692Z,98181.03
2023-05-24T12:17:02.058Z,98177.03
2023-05-24T12:19:36.878Z,98167.19
2023-05-24T12:22:09.147Z,98161.19
2023-05-24T12:24:37.579Z,98162.53
2023-05-24T12:27:07.788Z,98157.69
2023-05-24T12:29:36.700Z,98162.94
2023-05-24T12:32:04.342Z,98165.19
2023-05-24T12:34:30.950Z,98175.97
2023-05-24T12:36:57.907Z,98184.19
2023-05-24T12:39:31.793Z,98190.41
2023-05-24T12:42:01.632Z,98184.25
2023-05-24T12:44:35.953Z,98188.06
2023-05-24T12:47:05.002Z,98188.25
2023-05-24T12:49:32.082Z,98181.22
2023-05-24T12:51:59.907Z,98180.94
2023-05-24T12:54:28.427Z,98177.91
2023-05-24T12:56:57.334Z,98172.22
2023-05-24T12:59:24.646Z,98182.69
2023-05-24T13:01:52.169Z,98183.72
2023-05-24T13:04:21.515Z,98175.41
2023-05-24T13:06:49.049Z,98185.88
2023-05-24T13:09:19.204Z,98190.25
2023-05-24T13:11:46.653Z,98176.75
2023-05-24T13:14:13.501Z,98175.53
2023-05-24T13:16:40.294Z,98173.38
2023-05-24T13:19:07.017Z,98179.25
2023-05-24T13:21:34.008Z,98181.00
2023-05-24T13:24:00.770Z,98172.97
2023-05-24T13:26:27.743Z,98159.44
2023-05-24T13:29:22.914Z,98170.47
2023-05-24T13:31:41.870Z,98161.00
2023-05-24T13:34:11.029Z,98168.31
2023-05-24T13:36:38.439Z,98172.13
2023-05-24T13:39:15.455Z,98170.78
2023-05-24T13:41:43.914Z,98167.88
2023-05-24T13:44:11.452Z,98171.22
2023-05-24T13:46:38.586Z,98176.50
2023-05-24T13:49:07.114Z,98181.09
2023-05-24T13:51:33.861Z,98171.69
2023-05-24T13:54:01.212Z,98183.03
2023-05-24T13:56:32.978Z,98179.75
2023-05-24T13:59:02.524Z,98185.88
2023-05-24T14:01:30.426Z,98184.56
2023-05-24T14:03:57.230Z,98187.38
2023-05-24T14:06:23.913Z,98189.91
2023-05-24T14:08:50.705Z,98197.66
2023-05-24T14:11:17.410Z,98203.78
2023-05-24T14:14:42.964Z,98205.28
2023-05-24T14:16:31.179Z,98211.72
2023-05-24T14:18:58.158Z,98212.66
2023-05-24T14:21:27.094Z,98220.56
2023-05-24T14:23:54.114Z,98209.13
2023-05-24T14:26:23.628Z,98206.47
2023-05-24T14:28:52.265Z,98201.34
2023-05-24T14:31:20.372Z,98201.06
2023-05-24T14:33:47.109Z,98198.31
2023-05-24T14:36:13.733Z,98203.88
2023-05-24T14:38:40.394Z,98198.66
2023-05-24T14:41:07.104Z,98184.50
2023-05-24T14:43:33.833Z,98185.66
2023-05-24T14:46:00.683Z,98186.19
2023-05-24T14:48:27.368Z,98181.88
2023-05-24T14:50:54.044Z,98191.16
2023-05-24T14:53:20.711Z,98188.59
2023-05-24T14:55:47.618Z,98176.75
2023-05-24T14:58:14.678Z,98185.53
2023-05-24T15:00:43.037Z,98195.47
2023-05-24T15:03:12.808Z,98188.66
2023-05-24T15:05:40.013Z,98177.09
2023-05-24T15:08:07.910Z,98178.63
2023-05-24T15:10:34.730Z,98181.13
2023-05-24T15:13:03.805Z,98188.41
2023-05-24T15:15:30.592Z,98193.56
2023-05-24T15:17:59.602Z,98185.44
2023-05-24T15:20:26.334Z,98182.41
2023-05-24T15:22:53.046Z,98188.56
2023-05-24T15:25:19.714Z,98182.31
2023-05-24T15:27:46.390Z,98186.06
2023-05-24T15:30:13.333Z,98191.94
2023-05-24T15:32:41.229Z,98195.31
2023-05-24T15:35:08.340Z,98190.31
2023-05-24T15:37:35.000Z,98185.97
2023-05-24T15:40:01.705Z,98190.31
2023-05-24T15:42:28.455Z,98188.09
2023-05-24T15:44:55.179Z,98192.34
2023-05-24T15:47:22.571Z,98192.53
2023-05-24T15:49:49.972Z,98188.31
2023-05-24T15:52:16.850Z,98185.78
2023-05-24T15:54:43.603Z,98202.06
2023-05-24T15:57:10.289Z,98198.38
2023-05-24T15:59:38.564Z,98192.66
2023-05-24T16:02:07.226Z,98195.81
2023-05-24T16:04:33.901Z,98200.22
2023-05-24T16:07:00.752Z,98201.22
2023-05-24T16:09:27.440Z,98196.63
2023-05-24T16:11:54.171Z,98210.00
2023-05-24T16:14:21.192Z,98195.72
2023-05-24T16:16:47.822Z,98206.81
2023-05-24T16:19:14.654Z,98194.22
2023-05-24T16:21:41.497Z,98194.28
2023-05-24T16:24:08.245Z,98181.00
2023-05-24T16:26:35.208Z,98188.34
2023-05-24T16:29:02.008Z,98184.78
2023-05-24T16:31:30.191Z,98192.81
2023-05-24T16:33:58.825Z,98190.91
2023-05-24T16:36:26.889Z,98191.41
2023-05-24T16:38:53.642Z,98186.50
2023-05-24T16:43:46.931Z,98189.09
2023-05-24T16:46:13.548Z,98182.19
2023-05-24T16:48:40.192Z,98196.03
2023-05-24T16:51:07.007Z,98199.19
2023-05-24T16:53:33.738Z,98191.59
2023-05-24T16:56:00.422Z,98188.16
2023-05-24T16:58:28.462Z,98196.88
2023-05-24T17:00:55.381Z,98197.94
2023-05-24T17:03:27.918Z,98203.06
2023-05-24T17:05:56.692Z,98201.47
2023-05-24T17:08:25.783Z,98197.09
2023-05-24T17:10:56.210Z,98207.97
2023-05-24T17:13:29.166Z,98209.75
2023-05-24T17:15:56.417Z,98206.22
2023-05-24T17:18:28.207Z,98206.34
2023-05-24T17:20:55.176Z,98211.38
2023-05-24T17:23:21.903Z,98215.03
2023-05-24T17:25:48.556Z,98214.31
2023-05-24T17:28:15.166Z,98213.63
2023-05-24T17:30:42.070Z,98208.03
2023-05-24T17:33:08.958Z,98216.72
2023-05-24T17:35:35.689Z,98216.00
2023-05-24T17:38:02.318Z,98229.41
2023-05-24T17:40:29.046Z,98221.72
2023-05-24T17:42:55.839Z,98224.78
2023-05-24T17:45:22.510Z,98233.22
2023-05-24T17:47:49.750Z,98226.44
2023-05-24T17:50:16.392Z,98225.69
2023-05-24T17:52:43.049Z,98233.03
2023-05-24T17:55:10.134Z,98230.16
2023-05-24T17:57:36.745Z,98234.84
2023-05-24T18:00:03.735Z,98233.16
2023-05-24T18:02:30.468Z,98236.28
2023-05-24T18:04:57.171Z,98232.19
2023-05-24T18:07:24.168Z,98243.09
2023-05-24T18:09:51.698Z,98222.66
2023-05-24T18:12:18.565Z,98235.00
2023-05-24T18:14:45.319Z,98236.81
2023-05-24T18:17:12.178Z,98230.25
2023-05-24T18:19:38.807Z,98226.19
2023-05-24T18:22:05.962Z,98225.88
2023-05-24T18:24:32.679Z,98233.47
2023-05-24T18:26:59.632Z,98226.91
2023-05-24T18:29:26.285Z,98232.78
2023-05-24T18:31:53.460Z,98244.16
2023-05-24T18:34:20.134Z,98239.63
2023-05-24T18:36:46.785Z,98242.66
2023-05-24T18:39:13.417Z,98246.81
2023-05-24T18:41:40.024Z,98242.59
2023-05-24T18:44:06.638Z,98248.34
2023-05-24T18:46:33.696Z,98255.00
2023-05-24T18:49:01.801Z,98251.50
2023-05-24T18:51:28.510Z,98250.13
2023-05-24T18:53:55.133Z,98250.63
2023-05-24T18:56:22.003Z,98254.28
2023-05-24T18:58:51.130Z,98250.53
2023-05-24T19:01:18.928Z,98252.50
2023-05-24T19:03:45.590Z,98255.69
2023-05-24T19:06:14.526Z,98265.66
2023-05-24T19:08:41.762Z,98267.97
2023-05-24T19:11:09.611Z,98261.44
2023-05-24T19:13:36.213Z,98262.81
2023-05-24T19:16:02.930Z,98262.63
2023-05-24T19:18:29.551Z,98264.75
2023-05-24T19:20:56.255Z,98259.97
2023-05-24T19:23:22.873Z,98275.03
2023-05-24T19:25:50.530Z,98269.81
2023-05-24T19:28:17.254Z,98277.47
2023-05-24T19:30:43.836Z,98274.94
2023-05-24T19:33:10.662Z,98275.63
2023-05-24T19:35:37.379Z,98285.94
2023-05-24T19:38:04.132Z,98276.19
2023-05-24T19:40:30.985Z,98274.38
2023-05-24T19:42:57.664Z,98271.41
2023-05-24T19:45:24.567Z,98277.28
2023-05-24T19:47:51.243Z,98274.69
2023-05-24T19:50:18.858Z,98278.16
2023-05-24T19:52:45.543Z,98277.38
2023-05-24T19:55:12.153Z,98278.88
2023-05-24T19:57:38.814Z,98275.97
2023-05-24T20:00:06.487Z,98288.31
2023-05-24T20:02:35.546Z,98274.84
2023-05-24T20:05:03.204Z,98270.50
2023-05-24T20:07:29.862Z,98273.59
2023-05-24T20:09:56.545Z,98278.88
2023-05-24T20:12:23.221Z,98283.25
2023-05-24T20:14:51.293Z,98286.41
2023-05-24T20:17:17.941Z,98274.91
2023-05-24T20:19:44.560Z,98285.59
2023-05-24T20:22:11.597Z,98279.97
2023-05-24T20:24:38.210Z,98282.25
2023-05-24T20:27:05.191Z,98271.75
2023-05-24T20:29:31.842Z,98288.53
2023-05-24T20:31:58.560Z,98277.00
2023-05-24T20:34:25.368Z,98277.84
2023-05-24T20:36:51.980Z,98287.13
2023-05-24T20:39:18.613Z,98280.00
2023-05-24T20:41:45.264Z,98275.19
2023-05-24T20:44:11.872Z,98280.63
2023-05-24T20:46:38.688Z,98290.06
2023-05-24T20:49:05.331Z,98287.41
2023-05-24T20:51:32.056Z,98282.16
2023-05-24T20:53:59.010Z,98284.88
2023-05-24T20:56:26.720Z,98276.72
2023-05-24T20:58:54.361Z,98278.59
2023-05-24T21:01:21.399Z,98286.13
2023-05-24T21:03:48.155Z,98288.25
2023-05-24T21:06:14.986Z,98281.31
2023-05-24T21:08:43.129Z,98277.63
2023-05-24T21:11:09.788Z,98275.09
2023-05-24T21:13:36.506Z,98270.50
2023-05-24T21:16:03.214Z,98272.31
2023-05-24T21:18:29.945Z,98265.00
2023-05-24T21:20:56.687Z,98260.84
2023-05-24T21:23:23.355Z,98270.41
2023-05-24T21:25:49.979Z,98277.50
2023-05-24T21:28:16.698Z,98272.28
2023-05-24T21:30:43.553Z,98273.31
2023-05-24T21:33:10.388Z,98270.75
2023-05-24T21:35:37.305Z,98266.53
2023-05-24T21:38:03.992Z,98268.56
2023-05-24T21:40:30.675Z,98270.41
2023-05-24T21:42:57.243Z,98265.16
2023-05-24T21:45:23.849Z,98265.31
2023-05-24T21:47:50.555Z,98261.31
2023-05-24T21:50:17.258Z,98259.63
2023-05-24T21:52:43.910Z,98263.75
2023-05-24T21:55:10.487Z,98268.38
2023-05-24T21:57:37.201Z,98268.13
2023-05-24T22:00:04.462Z,98269.81
2023-05-24T22:02:32.069Z,98269.13
2023-05-24T22:04:58.825Z,98268.09
2023-05-24T22:07:25.854Z,98264.75
2023-05-24T22:09:52.523Z,98270.81
2023-05-24T22:12:19.261Z,98268.94
2023-05-24T22:14:45.894Z,98268.69
2023-05-24T22:17:14.246Z,98270.44
2023-05-24T22:19:41.401Z,98263.50
2023-05-24T22:22:09.917Z,98259.16
2023-05-24T22:24:36.641Z,98259.16
2023-05-24T22:27:03.968Z,98253.75
2023-05-24T22:29:30.898Z,98258.97
2023-05-24T22:31:57.615Z,98262.97
2023-05-24T22:34:30.991Z,98245.91
2023-05-24T22:36:58.052Z,98270.53
2023-05-24T22:39:25.080Z,98266.38
2023-05-24T22:41:52.645Z,98269.09
2023-05-24T22:44:20.088Z,98268.03
2023-05-24T22:46:50.003Z,98269.13
2023-05-24T22:49:19.621Z,98275.91
2023-05-24T22:51:48.583Z,98266.53
2023-05-24T22:54:15.835Z,98270.03
2023-05-24T22:56:43.512Z,98267.16
2023-05-24T22:59:11.326Z,98265.53
2023-05-24T23:01:38.178Z,98267.44
2023-05-24T23:04:19.562Z,98263.19
2023-05-24T23:06:47.033Z,98261.03
2023-05-24T23:09:13.751Z,98265.03
2023-05-24T23:11:40.442Z,98267.78
2023-05-24T23:14:08.929Z,98256.34
2023-05-24T23:16:45.749Z,98258.66
2023-05-24T23:19:18.742Z,98262.66
2023-05-24T23:21:46.380Z,98261.81
2023-05-24T23:24:15.953Z,98262.84
2023-05-24T23:26:43.111Z,98261.41
2023-05-24T23:29:09.853Z,98260.34
2023-05-24T23:31:36.593Z,98262.84
2023-05-24T23:34:04.559Z,98264.28
2023-05-24T23:36:31.378Z,98270.34
2023-05-24T23:38:58.194Z,98267.41
2023-05-24T23:41:24.835Z,98253.78
2023-05-24T23:43:52.529Z,98255.69
2023-05-24T23:46:19.417Z,98258.84
2023-05-24T23:48:46.219Z,98263.84
2023-05-24T23:51:12.970Z,98253.19
2023-05-24T23:53:39.669Z,98252.97
2023-05-24T23:56:06.367Z,98248.56
2023-05-24T23:58:33.635Z,98259.19
